ADDS METAR Data INFO
IDs: Format: Raw Decoded Include TAF

Data at: 1612 UTC 14 Aug 2018

KSPS 141552Z 21016KT 10SM FEW023 29/22 A2993 RMK AO2 SLP122 T02890217
KSPS 141452Z 20015G19KT 10SM FEW070 26/21 A2992 RMK AO2 SLP119 T02610211 50004
KSPS 141352Z 19010KT 10SM BKN060 24/21 A2992 RMK AO2 SLP120 T02390211
KSPS 141252Z 18006KT 10SM FEW055 23/21 A2992 RMK AO2 SLP119 T02280211
KSPS 141152Z 18007KT 10SM BKN065 OVC080 23/21 A2991 RMK AO2 SLP115 70379 T02280211 10233 20222 53001
KSPS 141052Z 16006KT 10SM OVC060 23/21 A2990 RMK AO2 SLP113 T02280211 $
KSPS 140952Z 18008KT 10SM SCT055 BKN070 OVC110 23/21 A2990 RMK AO2 SLP115 T02280211 $
KSPS 140852Z AUTO 18007KT 10SM BKN060 BKN075 23/21 A2991 RMK AO2 SLP114 T02280206 58004 $
KSPS 140752Z AUTO 17005KT 10SM CLR 22/21 A2991 RMK AO2 SLP116 T02220206 $
KSPS 140652Z AUTO 17003KT 10SM OVC110 23/21 A2992 RMK AO2 SLP120 T02280206 $
KSPS 140552Z AUTO 19006KT 10SM BKN120 23/21 A2992 RMK AO2 SLP120 T02280206 10256 20222 402560211 58002 $
KSPS 140452Z AUTO 17004KT 10SM OVC120 23/21 A2992 RMK AO2 SLP123 T02280206 $
KSPS 140352Z 17008KT 10SM BKN110 23/20 A2993 RMK AO2 SLP125 T02280200 $
KSPS 140252Z 17007KT 10SM CLR 22/20 A2992 RMK AO2 SLP122 T02220200 53002 $
KSPS 140152Z 17006KT 10SM FEW055 23/20 A2991 RMK AO2 SLP119 T02330200 $
KSPS 140103Z 19009KT 10SM SCT025 BKN050 24/21 A2991 RMK AO2 T02440211 $
KSPS 140052Z 19009KT 10SM BKN025 BKN033 OVC055 25/21 A2991 RMK AO2 SLP117 T02500211 $
KSPS 140044Z 19011KT 10SM BKN025 BKN033 25/22 A2991 RMK AO2 T02500217 $
KSPS 132352Z 23003KT 10SM FEW080 26/22 A2992 RMK AO2 SLP118 60013 T02560222 10256 20217 58005 $
KSPS 132252Z 18007KT 10SM FEW049 FEW080 SCT095 24/22 A2992 RMK AO2 RAE17 SLP122 P0010 T02390222 $
KSPS 132229Z 17007KT 10SM FEW008 BKN031 OVC090 23/22 A2993 RMK AO2 RAE17 P0010 T02280217 $
KSPS 132213Z 17006KT 10SM -RA FEW009 BKN020 OVC033 23/22 A2993 RMK AO2 LTG DSNT E P0010 T02280217 $
KSPS 132159Z 13008KT 4SM RA BR FEW007 BKN033 OVC055 23/22 A2993 RMK AO2 LTG DSNT E AND SE P0009 T02330222 $
KSPS 132152Z 14011KT 7SM RA SCT016 BKN025 OVC035 23/22 A2993 RMK AO2 LTG DSNT E AND SE SLP121 P0001 T02330217 $
KSPS 132148Z 13009KT 10SM -RA FEW015 SCT025 OVC035 23/22 A2993 RMK AO2 LTG DSNT SE P0000 $
KSPS 132052Z 33004KT 10SM -RA BKN026 OVC033 24/21 A2994 RMK AO2 RAE09B44 SLP127 P0000 60002 T02440211 55013 $
KSPS 131952Z 09005KT 10SM -RA FEW050 SCT070 BKN110 25/22 A2994 RMK AO2 RAB46 SLP126 P0000 T02500217 $
KSPS 131852Z 08004KT 10SM FEW004 BKN033 23/22 A2996 RMK AO2 RAE24 SLP132 P0002 T02330217 $
KSPS 131835Z 08006KT 10SM SCT004 BKN029 OVC038 23/22 A2996 RMK AO2 RAE24 P0002 T02280217 $
KSPS 131820Z 06004KT 10SM -RA FEW004 BKN037 OVC050 22/21 A2996 RMK AO2 P0002 T02220211 $
KSPS 131752Z 03004KT 10SM -RA SCT029 BKN035 OVC044 22/21 A2998 RMK AO2 SLP142 P0048 60366 T02170211 10222 20211 58012 $
KSPS 131732Z 04006KT 7SM -RA FEW030 BKN035 OVC045 22/21 A3000 RMK AO2 P0045 T02170211 $
KSPS 131723Z 03004KT 2 1/2SM +RA BR BKN033 BKN042 OVC048 22/21 A3000 RMK AO2 P0041 T02170211 $
KSPS 131716Z 01004KT 3SM +RA BR BKN030 OVC043 22/21 A3000 RMK AO2 P0029 T02170211 $
KSPS 131701Z 06005KT 3SM +RA BR BKN028 OVC044 22/21 A3002 RMK AO2 P0015 T02170211 $
KSPS 131652Z 07008KT 1 1/2SM +RA BR BKN024 OVC034 22/21 A3002 RMK AO2 SLP151 P0144 T02170206 $
KSPS 131645Z 06007KT 1 3/4SM +RA BR FEW016 BKN023 OVC032 22/21 A3002 RMK AO2 P0120 T02170206 $
KSPS 131624Z 06007KT 3SM +RA BR FEW015 BKN019 OVC028 22/21 A3002 RMK AO2 P0089 T02170206 $
KSPS 131559Z 02005KT 1 1/2SM +RA BR BKN023 OVC038 21/21 A3002 RMK AO2 P0026 T02110206 $
KSPS 131552Z 05003KT 1SM +RA BR BKN005 BKN034 OVC060 22/21 A3002 RMK AO2 SLP155 P0036 T02170206 $
KSPS 131534Z 08007KT 4SM RA BR BKN005 BKN034 OVC060 22/21 A3002 RMK AO2 P0012 T02170211 $
KSPS 131504Z 07006KT 9SM RA SCT004 BKN009 OVC080 22/21 A3002 RMK AO2 P0002 T02170211 $
KSPS 131452Z 06005KT 10SM -RA FEW005 OVC010 22/21 A3002 RMK AO2 SLP153 P0005 60138 T02170206 50004 $
KSPS 131416Z 06007KT 10SM -RA BKN010 BKN055 OVC100 22/21 A3003 RMK AO2 P0004 T02170206 $
KSPS 131411Z 07007KT 10SM -RA SCT010 BKN055 OVC100 22/21 A3003 RMK AO2 P0004 T02170206 $
KSPS 131352Z 07007KT 6SM RA BR BKN006 OVC037 21/21 A3003 RMK AO2 RAB1256 SLP157 P0065 T02110206 $
KSPS 131311Z 03003KT 3SM +RA BR SCT008 BKN011 OVC016 22/21 A3003 RMK AO2 RAB1256 P0037 T02170211 $
KSPS 131252Z 00000KT 6SM BR BKN008 OVC015 22/21 A3002 RMK AO2 RAEMM SLP153 P0068 T02170211
KSPS 131215Z 28007KT 4SM -RA BR FEW006 FEW012 OVC019 22/21 A3001 RMK AO2 P0026 T02220211
KSPS 131207Z 29007KT 2 1/2SM RA BR FEW006 SCT011 OVC021 22/21 A3001 RMK AO2 P0016 T02220211
KSPS 131152Z 29007KT 10SM -RA OVC021 22/21 A3001 RMK AO2 SLP146 P0059 60100 70100 T02220211 10250 20217 56001
KSPS 131114Z 25005KT 8SM -RA BKN020 BKN037 OVC046 22/21 A3000 RMK AO2 P0047 T02220211
KSPS 131052Z 17007KT 2 1/2SM +RA BR BKN022 BKN029 OVC120 22/21 A3001 RMK AO2 SLP146 P0041 T02220211
KSPS 131048Z 21009KT 3SM +RA BR BKN025 BKN046 BKN120 22/21 A3001 RMK AO2 P0028
KSPS 130952Z 16006KT 10SM -RA BKN060 OVC075 24/20 A3001 RMK AO2 RAB50 SLP147 P0000 T02390200
KSPS 130852Z 12004KT 10SM OVC080 24/19 A3001 RMK AO2 SLP147 T02440194 55001
KSPS 130752Z AUTO 00000KT 10SM FEW090 OVC120 25/19 A3000 RMK AO2 SLP145 T02500189
KSPS 130652Z AUTO 17003KT 10SM CLR 24/19 A3001 RMK AO2 SLP147 T02440189
KSPS 130552Z AUTO 14006KT 10SM CLR 25/19 A3002 RMK AO2 SLP150 T02500194 10294 20250 403330194 53009
KSPS 130452Z AUTO 20005KT 10SM CLR 26/19 A3000 RMK AO2 SLP145 T02560194